createdAt,value
2023-05-14T00:00:23.880Z,99120.66
2023-05-14T00:02:50.870Z,99125.97
2023-05-14T00:05:17.579Z,99122.16
2023-05-14T00:07:45.586Z,99119.63
2023-05-14T00:10:12.264Z,99118.94
2023-05-14T00:12:38.927Z,99123.97
2023-05-14T00:15:06.328Z,99112.94
2023-05-14T00:17:33.189Z,99115.16
2023-05-14T00:19:59.905Z,99108.22
2023-05-14T00:22:26.505Z,99112.50
2023-05-14T00:24:54.497Z,99111.25
2023-05-14T00:27:21.142Z,99111.69
2023-05-14T00:29:47.790Z,99115.22
2023-05-14T00:32:14.411Z,99117.63
2023-05-14T00:34:41.159Z,99113.59
2023-05-14T00:37:07.807Z,99116.53
2023-05-14T00:39:34.451Z,99115.53
2023-05-14T00:42:02.468Z,99119.66
2023-05-14T00:44:29.128Z,99114.94
2023-05-14T00:46:55.950Z,99110.66
2023-05-14T00:49:23.389Z,99114.72
2023-05-14T00:51:50.122Z,99115.13
2023-05-14T00:54:16.903Z,99113.03
2023-05-14T00:56:45.077Z,99116.38
2023-05-14T00:59:13.225Z,99120.41
2023-05-14T01:01:39.973Z,99114.41
2023-05-14T01:04:07.288Z,99110.44
2023-05-14T01:06:37.817Z,99113.47
2023-05-14T01:09:08.847Z,99107.66
2023-05-14T01:11:39.987Z,99112.09
2023-05-14T01:14:11.090Z,99110.84
2023-05-14T01:16:40.270Z,99107.63
2023-05-14T01:19:10.415Z,99111.41
2023-05-14T01:21:40.796Z,99116.09
2023-05-14T01:24:07.693Z,99112.34
2023-05-14T01:26:35.049Z,99110.31
2023-05-14T01:29:03.953Z,99107.53
2023-05-14T01:31:32.321Z,99103.63
2023-05-14T01:34:00.271Z,99097.78
2023-05-14T01:36:28.717Z,99101.41
2023-05-14T01:38:57.604Z,99101.81
2023-05-14T01:41:25.485Z,99102.50
2023-05-14T01:43:52.366Z,99102.53
2023-05-14T01:46:19.455Z,99105.03
2023-05-14T01:48:46.409Z,99104.31
2023-05-14T01:51:15.184Z,99095.41
2023-05-14T01:53:41.885Z,99100.59
2023-05-14T01:56:09.863Z,99104.03
2023-05-14T01:58:36.564Z,99098.09
2023-05-14T02:01:03.276Z,99100.03
2023-05-14T02:03:30.011Z,99104.59
2023-05-14T02:05:56.706Z,99101.00
2023-05-14T02:08:23.554Z,99098.50
2023-05-14T02:10:50.499Z,99095.69
2023-05-14T02:13:18.576Z,99095.28
2023-05-14T02:15:45.853Z,99099.72
2023-05-14T02:18:12.724Z,99097.59
2023-05-14T02:20:39.440Z,99095.78
2023-05-14T02:23:06.130Z,99096.75
2023-05-14T02:25:32.738Z,99104.63
2023-05-14T02:27:59.474Z,99102.78
2023-05-14T02:30:27.592Z,99097.38
2023-05-14T02:32:54.443Z,99092.47
2023-05-14T02:35:21.239Z,99099.94
2023-05-14T02:37:48.242Z,99089.66
2023-05-14T02:40:15.039Z,99086.69
2023-05-14T02:42:41.682Z,99073.63
2023-05-14T02:45:08.639Z,99095.69
2023-05-14T02:47:38.194Z,99088.19
2023-05-14T02:50:06.456Z,99085.31
2023-05-14T02:52:35.512Z,99090.47
2023-05-14T02:55:02.404Z,99092.50
2023-05-14T02:57:29.233Z,99085.44
2023-05-14T02:59:55.884Z,99084.88
2023-05-14T03:02:22.873Z,99085.44
2023-05-14T03:04:51.412Z,99086.50
2023-05-14T03:07:18.061Z,99086.94
2023-05-14T03:09:45.263Z,99083.47
2023-05-14T03:12:12.928Z,99081.31
2023-05-14T03:14:39.656Z,99081.66
2023-05-14T03:17:06.320Z,99077.03
2023-05-14T03:19:33.222Z,99076.84
2023-05-14T03:22:01.304Z,99078.22
2023-05-14T03:24:27.950Z,99074.44
2023-05-14T03:26:54.638Z,99080.09
2023-05-14T03:29:21.292Z,99085.31
2023-05-14T03:31:48.309Z,99085.00
2023-05-14T03:34:14.967Z,99082.91
2023-05-14T03:36:41.674Z,99082.75
2023-05-14T03:39:09.770Z,99087.72
2023-05-14T03:41:37.477Z,99080.47
2023-05-14T03:44:06.353Z,99074.34
2023-05-14T03:46:33.256Z,99067.28
2023-05-14T03:49:00.049Z,99068.25
2023-05-14T03:51:26.750Z,99073.53
2023-05-14T03:53:53.421Z,99074.50
2023-05-14T03:56:22.601Z,99081.31
2023-05-14T03:58:49.274Z,99080.84
2023-05-14T04:01:15.992Z,99076.25
2023-05-14T04:03:42.780Z,99077.41
2023-05-14T04:06:10.098Z,99082.38
2023-05-14T04:08:36.792Z,99083.19
2023-05-14T04:11:03.478Z,99088.50
2023-05-14T04:13:31.512Z,99075.13
2023-05-14T04:15:58.552Z,99087.06
2023-05-14T04:18:25.389Z,99086.44
2023-05-14T04:20:52.044Z,99088.66
2023-05-14T04:23:18.687Z,99093.63
2023-05-14T04:25:45.325Z,99095.00
2023-05-14T04:28:12.031Z,99094.66
2023-05-14T04:30:40.548Z,99099.00
2023-05-14T04:33:07.352Z,99095.00
2023-05-14T04:35:34.065Z,99097.41
2023-05-14T04:38:00.873Z,99096.78
2023-05-14T04:40:27.605Z,99095.00
2023-05-14T04:42:54.275Z,99090.22
2023-05-14T04:45:20.990Z,99088.66
2023-05-14T04:47:49.122Z,99097.09
2023-05-14T04:50:16.543Z,99101.94
2023-05-14T04:52:43.310Z,99097.31
2023-05-14T04:55:10.330Z,99096.34
2023-05-14T04:57:36.974Z,99101.84
2023-05-14T05:00:05.974Z,99091.78
2023-05-14T05:02:34.772Z,99098.19
2023-05-14T05:05:02.988Z,99098.38
2023-05-14T05:07:30.056Z,99101.00
2023-05-14T05:09:56.760Z,99094.19
2023-05-14T05:12:23.448Z,99096.91
2023-05-14T05:14:50.077Z,99098.63
2023-05-14T05:17:16.924Z,99089.84
2023-05-14T05:19:44.559Z,99091.69
2023-05-14T05:22:12.920Z,99089.78
2023-05-14T05:24:39.618Z,99094.38
2023-05-14T05:27:06.324Z,99093.75
2023-05-14T05:29:33.179Z,99096.78
2023-05-14T05:32:00.094Z,99095.75
2023-05-14T05:34:26.913Z,99090.19
2023-05-14T05:36:53.645Z,99090.72
2023-05-14T05:39:21.701Z,99095.53
2023-05-14T05:41:48.501Z,99087.28
2023-05-14T05:44:15.127Z,99095.84
2023-05-14T05:46:41.914Z,99096.56
2023-05-14T05:49:08.581Z,99108.53
2023-05-14T05:51:35.319Z,99102.09
2023-05-14T05:54:02.150Z,99099.31
2023-05-14T05:56:30.796Z,99098.06
2023-05-14T05:58:57.602Z,99102.09
2023-05-14T06:01:24.710Z,99095.13
2023-05-14T06:03:51.304Z,99101.84
2023-05-14T06:06:17.944Z,99100.53
2023-05-14T06:08:44.627Z,99109.16
2023-05-14T06:11:11.306Z,99102.88
2023-05-14T06:13:39.352Z,99111.00
2023-05-14T06:16:06.381Z,99116.66
2023-05-14T06:18:33.143Z,99109.81
2023-05-14T06:21:00.310Z,99104.50
2023-05-14T06:23:27.171Z,99113.34
2023-05-14T06:25:53.808Z,99117.00
2023-05-14T06:28:20.505Z,99109.84
2023-05-14T06:30:50.934Z,99109.97
2023-05-14T06:33:19.375Z,99115.41
2023-05-14T06:35:47.201Z,99108.81
2023-05-14T06:38:13.848Z,99117.81
2023-05-14T06:40:40.467Z,99113.16
2023-05-14T06:43:07.102Z,99113.09
2023-05-14T06:45:33.957Z,99103.81
2023-05-14T06:48:02.062Z,99113.84
2023-05-14T06:50:28.689Z,99114.78
2023-05-14T06:52:55.383Z,99103.94
2023-05-14T06:55:22.077Z,99100.50
2023-05-14T06:57:48.852Z,99090.75
2023-05-14T07:00:16.201Z,99095.47
2023-05-14T07:02:43.158Z,99093.97
2023-05-14T07:05:11.526Z,99093.91
2023-05-14T07:07:38.282Z,99087.53
2023-05-14T07:10:05.878Z,99093.13
2023-05-14T07:12:32.498Z,99088.38
2023-05-14T07:14:59.237Z,99091.41
2023-05-14T07:17:26.083Z,99092.09
2023-05-14T07:19:52.829Z,99088.56
2023-05-14T07:22:20.905Z,99093.13
2023-05-14T07:24:47.786Z,99092.09
2023-05-14T07:27:14.478Z,99087.75
2023-05-14T07:29:41.177Z,99085.69
2023-05-14T07:32:07.778Z,99093.91
2023-05-14T07:34:34.568Z,99082.13
2023-05-14T07:37:01.400Z,99078.81
2023-05-14T07:39:29.489Z,99075.84
2023-05-14T07:41:56.302Z,99068.00
2023-05-14T07:44:22.953Z,99059.16
2023-05-14T07:46:49.786Z,99070.41
2023-05-14T07:49:16.552Z,99058.53
2023-05-14T07:51:43.196Z,99059.66
2023-05-14T07:54:11.288Z,99056.97
2023-05-14T07:56:39.314Z,99050.09
2023-05-14T07:59:07.350Z,99053.22
2023-05-14T08:01:34.082Z,99057.09
2023-05-14T08:04:01.071Z,99057.03
2023-05-14T08:06:28.293Z,99055.44
2023-05-14T08:08:55.352Z,99058.53
2023-05-14T08:11:22.552Z,99048.50
2023-05-14T08:13:50.640Z,99053.34
2023-05-14T08:16:17.402Z,99062.34
2023-05-14T08:18:44.191Z,99057.03
2023-05-14T08:21:11.105Z,99056.44
2023-05-14T08:23:37.866Z,99051.03
2023-05-14T08:26:04.775Z,99046.66
2023-05-14T08:28:31.474Z,99047.50
2023-05-14T08:30:59.548Z,99046.63
2023-05-14T08:33:26.246Z,99044.53
2023-05-14T08:35:53.353Z,99047.59
2023-05-14T08:38:20.050Z,99043.59
2023-05-14T08:40:48.382Z,99048.28
2023-05-14T08:43:17.482Z,99049.44
2023-05-14T08:45:44.552Z,99049.44
2023-05-14T08:48:15.948Z,99042.22
2023-05-14T08:50:43.712Z,99045.91
2023-05-14T08:53:10.649Z,99037.00
2023-05-14T08:55:37.717Z,99044.53
2023-05-14T08:58:04.373Z,99042.19
2023-05-14T09:00:31.031Z,99035.19
2023-05-14T09:02:58.279Z,99038.69
2023-05-14T09:05:26.352Z,99030.84
2023-05-14T09:07:53.090Z,99034.53
2023-05-14T09:10:21.072Z,99026.56
2023-05-14T09:12:47.990Z,99032.25
2023-05-14T09:15:14.754Z,99029.66
2023-05-14T09:17:41.456Z,99029.56
2023-05-14T09:20:09.383Z,99025.53
2023-05-14T09:22:38.571Z,99024.16
2023-05-14T09:25:06.460Z,99023.06
2023-05-14T09:27:33.395Z,99017.88
2023-05-14T09:30:07.633Z,99011.66
2023-05-14T09:32:44.242Z,99007.19
2023-05-14T09:35:12.607Z,99013.88
2023-05-14T09:37:44.021Z,99014.31
2023-05-14T09:40:11.918Z,99008.00
2023-05-14T09:42:38.500Z,99011.97
2023-05-14T09:45:06.999Z,99008.09
2023-05-14T09:47:33.944Z,99010.56
2023-05-14T09:50:00.773Z,99005.75
2023-05-14T09:52:27.445Z,99004.47
2023-05-14T09:54:55.524Z,99000.97
2023-05-14T09:57:22.180Z,99012.44
2023-05-14T09:59:48.916Z,99003.91
2023-05-14T10:02:21.964Z,99014.06
2023-05-14T10:04:49.761Z,99003.00
2023-05-14T10:07:17.547Z,99006.28
2023-05-14T10:09:45.803Z,99007.28
2023-05-14T10:12:15.315Z,98999.59
2023-05-14T10:14:46.783Z,99004.88
2023-05-14T10:17:18.382Z,99008.41
2023-05-14T10:19:48.054Z,99006.00
2023-05-14T10:22:16.008Z,99010.13
2023-05-14T10:24:43.140Z,99005.09
2023-05-14T10:27:10.485Z,99006.34
2023-05-14T10:29:38.535Z,98998.91
2023-05-14T10:32:08.979Z,98989.38
2023-05-14T10:34:40.979Z,98982.91
2023-05-14T10:37:08.687Z,98985.91
2023-05-14T10:39:42.647Z,98980.94
2023-05-14T10:42:10.937Z,98978.75
2023-05-14T10:44:42.833Z,98975.78
2023-05-14T10:47:09.630Z,98969.59
2023-05-14T10:49:43.344Z,98973.16
2023-05-14T10:52:11.748Z,98968.59
2023-05-14T10:54:38.677Z,98967.53
2023-05-14T10:57:11.084Z,98968.81
2023-05-14T10:59:40.943Z,98963.22
2023-05-14T11:02:19.120Z,98962.97
2023-05-14T11:04:52.138Z,98956.31
2023-05-14T11:07:19.316Z,98958.56
2023-05-14T11:09:47.120Z,98964.28
2023-05-14T11:12:13.866Z,98959.31
2023-05-14T11:14:42.123Z,98952.16
2023-05-14T11:17:09.050Z,98944.03
2023-05-14T11:19:36.115Z,98944.47
2023-05-14T11:22:02.775Z,98941.66
2023-05-14T11:24:29.406Z,98938.84
2023-05-14T11:26:56.396Z,98942.94
2023-05-14T11:29:23.037Z,98943.25
2023-05-14T11:31:51.553Z,98941.63
2023-05-14T11:34:18.216Z,98937.66
2023-05-14T11:36:44.902Z,98941.44
2023-05-14T11:39:17.618Z,98934.03
2023-05-14T11:41:44.502Z,98933.66
2023-05-14T11:44:11.246Z,98929.56
2023-05-14T11:46:37.875Z,98924.03
2023-05-14T11:49:06.773Z,98914.81
2023-05-14T11:51:33.511Z,98917.41
2023-05-14T11:54:00.167Z,98912.50
2023-05-14T11:56:26.853Z,98913.44
2023-05-14T11:58:56.680Z,98906.72
2023-05-14T12:01:23.354Z,98904.22
2023-05-14T12:03:50.415Z,98895.94
2023-05-14T12:06:19.115Z,98895.72
2023-05-14T12:08:47.846Z,98892.28
2023-05-14T12:11:14.500Z,98909.09
2023-05-14T12:13:41.185Z,98904.38
2023-05-14T12:16:07.893Z,98895.56
2023-05-14T12:18:34.730Z,98897.16
2023-05-14T12:21:05.218Z,98899.19
2023-05-14T12:23:33.392Z,98897.78
2023-05-14T12:26:01.662Z,98898.72
2023-05-14T12:28:28.752Z,98891.78
2023-05-14T12:30:58.624Z,98896.50
2023-05-14T12:35:53.962Z,98891.25
2023-05-14T12:38:20.818Z,98896.94
2023-05-14T12:40:48.847Z,98887.75
2023-05-14T12:43:15.546Z,98879.47
2023-05-14T12:45:42.204Z,98876.16
2023-05-14T12:48:08.934Z,98873.47
2023-05-14T12:53:33.744Z,98871.44
2023-05-14T12:56:01.740Z,98856.63
2023-05-14T12:58:28.519Z,98852.63
2023-05-14T13:00:55.179Z,98847.28
2023-05-14T13:03:22.105Z,98850.19
2023-05-14T13:05:48.879Z,98843.69
2023-05-14T13:08:17.904Z,98838.78
2023-05-14T13:10:44.670Z,98833.75
2023-05-14T13:13:12.999Z,98829.72
2023-05-14T13:15:39.649Z,98826.88
2023-05-14T13:18:06.772Z,98822.53
2023-05-14T13:20:33.852Z,98824.50
2023-05-14T13:23:00.577Z,98813.84
2023-05-14T13:25:27.712Z,98814.22
2023-05-14T13:27:54.354Z,98815.97
2023-05-14T13:30:22.459Z,98816.50
2023-05-14T13:32:49.244Z,98817.94
2023-05-14T13:35:15.937Z,98809.09
2023-05-14T13:37:43.000Z,98802.75
2023-05-14T13:40:10.676Z,98800.94
2023-05-14T13:42:37.530Z,98797.34
2023-05-14T13:45:04.512Z,98801.44
2023-05-14T13:47:33.594Z,98793.22
2023-05-14T13:50:00.360Z,98792.97
2023-05-14T13:52:26.985Z,98793.44
2023-05-14T13:54:53.631Z,98792.41
2023-05-14T13:57:21.512Z,98794.41
2023-05-14T13:59:48.305Z,98779.78
2023-05-14T14:02:15.050Z,98774.50
2023-05-14T14:04:43.305Z,98771.91
2023-05-14T14:07:10.021Z,98766.63
2023-05-14T14:09:37.005Z,98758.78
2023-05-14T14:12:04.171Z,98762.31
2023-05-14T14:14:31.058Z,98752.59
2023-05-14T14:16:57.757Z,98757.63
2023-05-14T14:19:24.681Z,98761.94
2023-05-14T14:21:53.181Z,98759.50
2023-05-14T14:24:20.120Z,98757.75
2023-05-14T14:26:46.744Z,98757.63
2023-05-14T14:29:13.374Z,98750.59
2023-05-14T14:31:40.120Z,98761.13
2023-05-14T14:34:06.836Z,98748.97
2023-05-14T14:36:33.438Z,98743.44
2023-05-14T14:39:01.428Z,98743.69
2023-05-14T14:41:28.566Z,98738.63
2023-05-14T14:43:55.235Z,98744.28
2023-05-14T14:46:21.941Z,98742.88
2023-05-14T14:48:48.716Z,98732.09
2023-05-14T14:51:15.461Z,98739.94
2023-05-14T14:53:42.134Z,98740.84
2023-05-14T14:56:10.162Z,98740.31
2023-05-14T14:58:37.073Z,98739.81
2023-05-14T15:01:03.900Z,98736.53
2023-05-14T15:03:31.441Z,98730.22
2023-05-14T15:05:58.279Z,98734.78
2023-05-14T15:08:25.775Z,98724.47
2023-05-14T15:10:52.545Z,98723.78
2023-05-14T15:13:20.768Z,98723.31
2023-05-14T15:15:47.543Z,98726.13
2023-05-14T15:18:14.203Z,98732.69
2023-05-14T15:20:40.917Z,98738.69
2023-05-14T15:23:07.717Z,98730.47
2023-05-14T15:25:34.408Z,98736.00
2023-05-14T15:28:01.426Z,98732.38
2023-05-14T15:30:30.344Z,98730.97
2023-05-14T15:32:57.225Z,98742.19
2023-05-14T15:35:24.054Z,98729.69
2023-05-14T15:37:50.944Z,98728.00
2023-05-14T15:40:18.821Z,98728.66
2023-05-14T15:42:46.870Z,98726.50
2023-05-14T15:45:14.185Z,98729.28
2023-05-14T15:47:42.268Z,98728.63
2023-05-14T15:50:09.348Z,98729.03
2023-05-14T15:52:36.529Z,98732.22
2023-05-14T15:55:04.446Z,98731.53
2023-05-14T15:57:31.718Z,98732.75
2023-05-14T15:59:58.473Z,98736.69
2023-05-14T16:02:25.171Z,98733.16
2023-05-14T16:04:53.283Z,98739.63
2023-05-14T16:07:19.930Z,98736.09
2023-05-14T16:09:46.551Z,98730.47
2023-05-14T16:12:14.338Z,98733.13
2023-05-14T16:14:42.191Z,98734.00
2023-05-14T16:17:09.156Z,98734.03
2023-05-14T16:19:35.828Z,98731.88
2023-05-14T16:22:03.886Z,98735.19
2023-05-14T16:24:30.629Z,98727.44
2023-05-14T16:26:57.341Z,98730.56
2023-05-14T16:29:24.063Z,98737.25
2023-05-14T16:31:50.739Z,98734.22
2023-05-14T16:34:17.448Z,98734.50
2023-05-14T16:36:44.146Z,98733.31
2023-05-14T16:39:12.191Z,98738.81
2023-05-14T16:41:38.845Z,98736.69
2023-05-14T16:44:05.499Z,98741.75
2023-05-14T16:46:32.427Z,98741.81
2023-05-14T16:48:59.378Z,98735.03
2023-05-14T16:51:26.020Z,98729.75
2023-05-14T16:53:54.680Z,98731.81
2023-05-14T16:56:24.090Z,98731.28
2023-05-14T16:58:50.803Z,98731.09
2023-05-14T17:01:17.564Z,98737.19
2023-05-14T17:03:45.686Z,98733.53
2023-05-14T17:06:12.388Z,98739.31
2023-05-14T17:08:39.090Z,98735.22
2023-05-14T17:11:06.056Z,98738.72
2023-05-14T17:13:34.225Z,98738.94
2023-05-14T17:16:01.108Z,98739.44
2023-05-14T17:18:28.297Z,98739.88
2023-05-14T17:20:55.267Z,98742.56
2023-05-14T17:23:21.954Z,98745.66
2023-05-14T17:25:48.603Z,98736.63
2023-05-14T17:28:15.237Z,98740.56
2023-05-14T17:30:43.839Z,98741.00
2023-05-14T17:33:11.566Z,98744.16
2023-05-14T17:35:38.664Z,98745.19
2023-05-14T17:38:05.381Z,98742.50
2023-05-14T17:40:32.120Z,98750.94
2023-05-14T17:42:58.781Z,98745.38
2023-05-14T17:45:26.273Z,98749.31
2023-05-14T17:47:54.803Z,98746.25
2023-05-14T17:50:21.504Z,98752.22
2023-05-14T17:52:48.448Z,98756.16
2023-05-14T17:55:17.406Z,98762.13
2023-05-14T17:57:44.245Z,98761.13
2023-05-14T18:00:11.614Z,98763.00
2023-05-14T18:02:38.427Z,98762.03
2023-05-14T18:05:06.864Z,98767.44
2023-05-14T18:07:34.807Z,98766.19
2023-05-14T18:10:01.460Z,98772.59
2023-05-14T18:12:29.159Z,98776.53
2023-05-14T18:14:56.144Z,98781.91
2023-05-14T18:17:23.066Z,98793.66
2023-05-14T18:19:49.796Z,98802.09
2023-05-14T18:22:17.912Z,98804.56
2023-05-14T18:24:45.010Z,98797.38
2023-05-14T18:27:11.704Z,98804.22
2023-05-14T18:29:38.332Z,98814.50
2023-05-14T18:32:05.378Z,98803.81
2023-05-14T18:34:32.044Z,98813.09
2023-05-14T18:36:58.783Z,98809.81
2023-05-14T18:39:26.805Z,98807.53
2023-05-14T18:41:54.054Z,98820.28
2023-05-14T18:44:20.771Z,98828.31
2023-05-14T18:46:47.506Z,98825.44
2023-05-14T18:49:14.279Z,98836.97
2023-05-14T18:51:40.944Z,98841.31
2023-05-14T18:54:07.637Z,98856.63
2023-05-14T18:56:36.870Z,98861.75
2023-05-14T18:59:04.359Z,98865.63
2023-05-14T19:01:31.471Z,98866.19
2023-05-14T19:03:58.297Z,98863.72
2023-05-14T19:06:25.168Z,98860.78
2023-05-14T19:08:52.112Z,98858.22
2023-05-14T19:11:18.774Z,98866.41
2023-05-14T19:13:47.887Z,98867.75
2023-05-14T19:16:14.719Z,98872.22
2023-05-14T19:18:41.523Z,98870.59
2023-05-14T19:21:08.180Z,98871.34
2023-05-14T19:23:34.872Z,98871.41
2023-05-14T19:26:01.618Z,98876.34
2023-05-14T19:28:28.335Z,98883.63
2023-05-14T19:30:57.293Z,98880.13
2023-05-14T19:33:24.110Z,98879.16
2023-05-14T19:35:51.057Z,98875.03
2023-05-14T19:38:19.145Z,98877.75
2023-05-14T19:40:45.877Z,98875.34
2023-05-14T19:43:12.535Z,98874.53
2023-05-14T19:45:39.409Z,98879.03
2023-05-14T19:48:07.729Z,98895.41
2023-05-14T19:50:36.916Z,98905.50
2023-05-14T19:53:04.574Z,98906.00
2023-05-14T19:55:31.262Z,98903.13
2023-05-14T19:57:57.912Z,98889.38
2023-05-14T20:00:24.839Z,98890.31
2023-05-14T20:02:51.682Z,98900.22
2023-05-14T20:05:19.819Z,98886.72
2023-05-14T20:07:48.913Z,98889.09
2023-05-14T20:10:15.635Z,98893.16
2023-05-14T20:12:42.271Z,98903.44
2023-05-14T20:15:09.544Z,98899.84
2023-05-14T20:17:37.299Z,98898.66
2023-05-14T20:20:04.978Z,98906.38
2023-05-14T20:22:32.995Z,98900.84
2023-05-14T20:24:59.700Z,98902.38
2023-05-14T20:27:26.339Z,98899.41
2023-05-14T20:29:54.160Z,98901.16
2023-05-14T20:32:24.931Z,98891.31
2023-05-14T20:34:51.931Z,98894.06
2023-05-14T20:37:19.876Z,98892.81
2023-05-14T20:39:48.089Z,98896.31
2023-05-14T20:42:14.795Z,98882.94
2023-05-14T20:44:41.446Z,98883.13
2023-05-14T20:47:08.077Z,98876.66
2023-05-14T20:49:34.688Z,98879.34
2023-05-14T20:52:01.585Z,98874.75
2023-05-14T20:54:28.194Z,98884.69
2023-05-14T20:56:56.183Z,98879.19
2023-05-14T20:59:22.828Z,98877.56
2023-05-14T21:01:49.597Z,98870.09
2023-05-14T21:04:16.485Z,98871.44
2023-05-14T21:06:43.303Z,98874.59
2023-05-14T21:09:10.891Z,98866.31
2023-05-14T21:11:37.574Z,98877.63
2023-05-14T21:14:05.724Z,98870.00
2023-05-14T21:16:32.742Z,98872.38
2023-05-14T21:18:59.504Z,98862.28
2023-05-14T21:21:26.207Z,98862.88
2023-05-14T21:23:52.932Z,98870.50
2023-05-14T21:26:21.643Z,98870.78
2023-05-14T21:28:48.383Z,98867.25
2023-05-14T21:31:16.417Z,98874.19
2023-05-14T21:33:43.186Z,98870.22
2023-05-14T21:36:09.917Z,98865.53
2023-05-14T21:38:36.682Z,98864.59
2023-05-14T21:41:03.367Z,98864.59
2023-05-14T21:43:30.120Z,98854.72
2023-05-14T21:45:56.730Z,98858.25
2023-05-14T21:48:24.809Z,98858.09
2023-05-14T21:50:51.516Z,98857.44
2023-05-14T21:53:18.170Z,98858.13
2023-05-14T21:55:44.806Z,98855.00
2023-05-14T21:58:11.660Z,98864.59
2023-05-14T22:00:38.251Z,98860.28
2023-05-14T22:03:05.049Z,98865.06
2023-05-14T22:05:33.153Z,98872.38
2023-05-14T22:07:59.821Z,98869.00
2023-05-14T22:10:26.409Z,98872.66
2023-05-14T22:12:53.084Z,98869.50
2023-05-14T22:15:19.637Z,98874.47
2023-05-14T22:17:47.199Z,98865.59
2023-05-14T22:20:14.003Z,98864.78
2023-05-14T22:22:42.005Z,98868.28
2023-05-14T22:25:09.015Z,98865.13
2023-05-14T22:27:35.708Z,98860.81
2023-05-14T22:30:02.377Z,98861.78
2023-05-14T22:32:29.008Z,98853.31
2023-05-14T22:34:55.838Z,98856.97
2023-05-14T22:37:22.550Z,98854.47
2023-05-14T22:39:50.572Z,98853.81
2023-05-14T22:42:17.294Z,98856.31
2023-05-14T22:44:43.886Z,98852.97
2023-05-14T22:47:10.640Z,98841.72
2023-05-14T22:49:37.223Z,98843.09
2023-05-14T22:52:04.058Z,98845.91
2023-05-14T22:54:30.628Z,98839.28
2023-05-14T22:56:58.633Z,98837.09
2023-05-14T22:59:25.339Z,98839.22
2023-05-14T23:01:52.087Z,98842.00
2023-05-14T23:04:18.693Z,98849.28
2023-05-14T23:06:45.366Z,98847.94
2023-05-14T23:09:12.006Z,98841.47
2023-05-14T23:11:38.673Z,98845.63
2023-05-14T23:14:06.653Z,98843.16
2023-05-14T23:16:33.413Z,98842.97
2023-05-14T23:19:00.099Z,98845.63
2023-05-14T23:21:27.234Z,98834.69
2023-05-14T23:23:53.905Z,98838.03
2023-05-14T23:26:21.546Z,98834.88
2023-05-14T23:28:48.281Z,98838.53
2023-05-14T23:31:16.297Z,98838.03
2023-05-14T23:33:44.703Z,98849.09
2023-05-14T23:36:11.357Z,98838.97
2023-05-14T23:38:38.169Z,98834.81
2023-05-14T23:41:05.179Z,98840.47
2023-05-14T23:43:33.570Z,98833.03
2023-05-14T23:46:00.397Z,98831.72
2023-05-14T23:48:28.447Z,98826.56
2023-05-14T23:50:55.000Z,98824.75
2023-05-14T23:53:21.651Z,98826.09
2023-05-14T23:55:48.288Z,98820.81
2023-05-14T23:58:15.029Z,98817.66
